Logo AVAMET
Benvolgut visitant, si us plau, ingressa Recuperar contrasenya

Xàbia Tossals/Carrasquetes

Dades diàries. Acumulats / Últims 30 dies disponibles

Data Temperatura (°C) Humitat rel. (%) Pressió rel. (hPa) Vent (km/h) Precipitació
Mínima Mitjana Màxima Amplitud
tèrmica
Mínima Mitjana Màxima Mínima Mitjana Màxima Predom. Mitjana Ràfega
màxima
Total
(mm)
Índex-n
Mínima Mitjana Màxima Mínima Mitjana Màxima n
0 a 1
P0 max
mm 5'
Dades mensuals acumulades fins l'últim dia disponible
01/2020 3,0 6,2 9,7 10,5 13,5 15,7 19,8 16,8 44 80 98 1.013 1.027 1.034   1,9 62,8 29,2
Dades anuals acumulades fins l'últim dia disponible
2020 3,0 6,2 9,7 10,5 13,5 15,7 19,8 16,8 44 80 98 1.013 1.027 1.034   1,9 62,8 29,2
Últims 30 dies disponibles
19-01-2020 7,8     11,2     14,3 6,5 63 83 97 1.013 1.015 1.020 SSO 9,4 62,8 13,0
18-01-2020 9,7     12,8     17,3 7,6 49 71 81 1.020 1.027 1.031 NW 0,6 19,3 0,0
17-01-2020 7,7     13,9     19,8 12,1 44 60 88 1.027 1.028 1.031 NW 2,7 29,0 0,0
16-01-2020 7,8     12,0     17,6 9,8 62 79 91 1.026 1.027 1.029 NNW 0,5 16,1 0,0
15-01-2020 5,8     11,0     17,9 12,1 49 72 85 1.023 1.025 1.027 NW 0,8 14,5 0,0
14-01-2020 4,7     9,4     16,0 11,3 53 73 89 1.021 1.022 1.024 NW 1,1 14,5 0,0
13-01-2020 3,0     8,9     15,2 12,2 53 77 93 1.022 1.025 1.030 NW 1,8 20,9 0,0
12-01-2020 4,0     8,0     14,2 10,2 49 79 95 1.028 1.029 1.031 NW 1,4 22,5 0,0
11-01-2020 6,4     10,9     13,5 7,1 69 78 95 1.027 1.029 1.031 NW 3,9 25,7 0,0
10-01-2020 7,1     10,9     14,3 7,2 62 85 98 1.022 1.024 1.028 NW 6,0 41,8 15,2 0,55 2,30
09-01-2020 7,1     11,2     15,1 8,0 73 86 93 1.024 1.027 1.030 W 0,8 16,1 0,0
08-01-2020 5,4     10,3     15,9 10,5 70 86 93 1.027 1.029 1.031 NW 2,1 25,7 0,2
07-01-2020 6,7     9,9     15,3 8,6 73 89 96 1.028 1.030 1.032 NW 1,0 16,1 0,2
06-01-2020 6,3     10,6     14,8 8,5 74 86 96 1.027 1.029 1.030 W 0,8 22,5 0,0
05-01-2020 5,5     10,2     16,8 11,3 56 77 88 1.027 1.029 1.031 NW 0,5 11,3 0,0
04-01-2020 6,1     9,9     15,1 9,0 64 83 95 1.031 1.032 1.034 NW 0,6 19,3 0,0
03-01-2020 5,1     9,7     15,3 10,2 73 89 96 1.029 1.030 1.032 NW 0,5 19,3 0,2
02-01-2020 5,5     9,9     15,2 9,7 67 86 97 1.030 1.031 1.033 NW 1,8 22,5 0,2
01-01-2020 5,7     9,3     14,1 8,4 79 90 96 1.030 1.031 1.033 NW 0,3 9,7 0,2
31-12-2019 6,2     9,7     14,6 8,4 76 90 95 1.031 1.032 1.034 NW 0,2 12,9 0,2
30-12-2019 7,8     10,9     13,7 5,9 74 87 96 1.031 1.032 1.034 NW 1,6 22,5 0,0
29-12-2019 7,3     10,1     14,2 6,9 76 89 96 1.030 1.031 1.033 NW 0,5 17,7 0,2
28-12-2019 8,3     11,4     16,1 7,8 73 90 98 1.028 1.030 1.032 NW 0,3 12,9 0,2
27-12-2019 8,5     12,5     18,2 9,7 71 86 96 1.027 1.028 1.030 NW 0,5 14,5 0,0
26-12-2019 9,8     14,2     21,0 11,2 49 68 89 1.021 1.024 1.029 ESE 0,2 19,3 0,0
25-12-2019 10,6     13,9     19,3 8,7 62 81 95 1.022 1.023 1.025 NW 0,5 14,5 0,0
24-12-2019 11,4     16,3     23,0 11,6 46 64 78 1.025 1.026 1.028 NW 0,2 14,5 0,0
23-12-2019 12,1     16,8     22,8 10,7 36 60 74 1.019 1.024 1.026 NW 3,4 32,2 0,0
22-12-2019 14,1     18,2     22,0 7,9 42 52 64 1.007 1.014 1.019 W 3,9 49,9 0,0
21-12-2019 15,9     19,4     22,3 6,4 35 71 91 1.002 1.004 1.007 W 4,3 48,3 0,0
Últims 13 mesos disponibles
12/2019 6,2 10,1 15,9 13,8 13,7 18,0 23,0 16,8 48 76 93 1.004 1.018 1.032 NW 2,6 53,1 140,0
11/2019 5,4 11,5 19,6 15,5 14,7 19,8 27,6 22,2 44 61 87 998 1.010 1.018 NW 3,4 51,5 12,0
10/2019 8,8 15,6 19,9 19,9 16,7 24,6 30,0 21,2 48 76 92 1.007 1.016 1.021 NW 1,7 45,1 75,4
09/2019 13,9 19,6 23,7 23,4 23,3 27,2 32,1 18,2 64 81 92 1.009 1.016 1.022 ESE 2,8 53,1 188,0
08/2019 19,0 21,9 25,3 26,1 26,9 30,6 36,3 17,3 61 76 85 1.009 1.015 1.019 SW 2,6 38,6 29,8
07/2019 19,9 22,0 26,1 26,6 28,7 31,2 36,2 16,3 51 71 81 1.005 1.013 1.020 ESE 2,7 45,1 2,2
06/2019 13,0 17,6 22,8 22,4 21,6 27,1 35,9 22,9 50 70 83 1.008 1.014 1.021 NNW 3,5 41,8 0,8
05/2019 9,8 14,2 19,7 18,7 19,8 23,6 30,1 20,3 54 72 84 1.004 1.015 1.024 WSW 2,2 41,8 12,4
04/2019 7,8 11,2 14,3 15,3 14,3 20,0 28,6 20,8 47 73 95 999 1.012 1.025 W 3,3 43,5 363,0
03/2019 6,4 9,3 13,2 14,2 13,9 19,3 28,1 21,7 45 67 91 1.010 1.022 1.029 NW 2,4 38,6 39,2
02/2019 4,3 7,3 11,5 12,0 13,0 17,4 22,8 18,5 38 70 86 995 1.024 1.033 NW 2,2 53,1 1,0
01/2019 2,3 7,0 11,9 11,3 11,3 16,4 21,5 19,2 40 65 87 1.003 1.018 1.030 NW 2,2 46,7 6,8
12/2018 5,6 8,5 10,9 12,8 13,1 18,5 22,3 16,7 57 77 88 1.008 1.024 1.030 NW 0,8 45,1 4,6
Tots els anys disponibles
2019 2,3 14,0 26,1 18,3 11,3 23,0 36,3 34,0 38 72 95 995 1.016 1.033 NW 2,6 53,1 870,6
2018 2,1 14,2 25,8 18,4 8,1 23,2 37,5 35,4 37 76 94 999 1.017 1.030 NW 2,2 62,8 778,8
2017 0,4 14,1 26,9 18,7 8,9 23,3 35,9 35,5 38 71 96 999 1.018 1.036 0,0 68,0 720,4
2016 1,9 14,4 24,3 18,7 12,2 23,1 38,2 36,3 35 70 94 995 1.017 1.036 56,0 475,4
2015 3,8 12,1 21,1 16,4 13,1 20,7 30,4 26,6 44 78 91 1.008 1.023 1.036 48,0 232,2
2014
Temperatura (°C)
Humitat relativa (%)
Velocitat del vent i ràfega màxima (km/h)
Direcció del vent (°)
Pressió (hPa)
Precipitació (mm)
Nota sobre les dades: s'avisa a l'usuari de la provisionalitat i no oficialitat d'aquestes dades
Logo AVAMET blanc
Web allotjada a Sollutia
Llicència de Creative CommonsLa web d'AVAMET i els seus continguts estan subjectes a una llicència de
Reconeixement - No Comercial - Compartir igual
Últimes estacions: Xixona - Els Ameradors (Soci), Agres - El Tossal (Soci), Xàbia - Bevenguts (MeteoXàbia), Llíria (Aj. Soci/Inforatge), Orihuela - Lo Capitán, Cox & Guardamar del Segura - horta (Meteorihuela), l'Alcúdia - Carriona & el Real de Gandia (Inforatge), Benicàssim - les Vil·les (Soci),  l'Alfàs del Pi - l'Albir (Soci), - - -